createdAt,value
2019-03-25T00:01:54.298Z,29.97
2019-03-25T00:04:22.840Z,31.20
2019-03-25T00:06:51.584Z,31.10
2019-03-25T00:09:20.132Z,32.73
2019-03-25T00:11:48.782Z,29.73
2019-03-25T00:14:17.388Z,32.47
2019-03-25T00:16:46.037Z,32.50
2019-03-25T00:19:14.660Z,29.90
2019-03-25T00:21:43.243Z,31.00
2019-03-25T00:24:11.784Z,31.40
2019-03-25T00:26:40.424Z,31.50
2019-03-25T00:29:08.975Z,29.37
2019-03-25T00:31:37.556Z,30.77
2019-03-25T00:34:06.168Z,32.37
2019-03-25T00:36:34.725Z,29.83
2019-03-25T00:39:04.668Z,29.43
2019-03-25T00:41:32.879Z,31.77
2019-03-25T00:44:01.461Z,31.83
2019-03-25T00:46:29.686Z,32.67
2019-03-25T00:48:58.252Z,31.90
2019-03-25T00:51:26.795Z,29.13
2019-03-25T00:53:55.368Z,31.70
2019-03-25T00:56:23.919Z,30.13
2019-03-25T00:58:52.163Z,30.70
2019-03-25T01:01:20.380Z,31.30
2019-03-25T01:03:49.030Z,31.97
2019-03-25T01:06:17.644Z,31.77
2019-03-25T01:08:46.292Z,34.30
2019-03-25T01:11:14.504Z,32.73
2019-03-25T01:13:43.080Z,32.43
2019-03-25T01:16:11.628Z,31.87
2019-03-25T01:18:39.874Z,28.77
2019-03-25T01:21:08.414Z,28.97
2019-03-25T01:23:36.993Z,31.33
2019-03-25T01:26:05.608Z,32.77
2019-03-25T01:28:34.250Z,30.87
2019-03-25T01:31:02.806Z,29.30
2019-03-25T01:33:31.057Z,28.93
2019-03-25T01:35:59.604Z,30.97
2019-03-25T01:38:28.146Z,27.87
2019-03-25T01:40:56.395Z,32.20
2019-03-25T01:43:24.936Z,30.27
2019-03-25T01:45:53.522Z,31.23
2019-03-25T01:48:22.065Z,30.20
2019-03-25T01:50:50.309Z,32.07
2019-03-25T01:53:18.856Z,28.80
2019-03-25T01:55:47.496Z,31.43
2019-03-25T01:58:16.046Z,29.90
2019-03-25T02:00:44.609Z,30.00
2019-03-25T02:03:13.156Z,28.33
2019-03-25T02:05:41.729Z,28.93
2019-03-25T02:08:10.268Z,28.73
2019-03-25T02:10:38.912Z,29.67
2019-03-25T02:13:07.465Z,29.10
2019-03-25T02:15:36.049Z,31.13
2019-03-25T02:18:04.664Z,31.53
2019-03-25T02:20:33.241Z,31.30
2019-03-25T02:23:01.567Z,30.37
2019-03-25T02:25:30.242Z,31.03
2019-03-25T02:27:58.800Z,30.63
2019-03-25T02:30:27.451Z,30.00
2019-03-25T02:32:56.002Z,31.00
2019-03-25T02:35:24.575Z,29.90
2019-03-25T02:37:53.119Z,28.17
2019-03-25T02:40:21.370Z,30.37
2019-03-25T02:42:49.916Z,30.37
2019-03-25T02:45:18.501Z,30.13
2019-03-25T02:47:47.117Z,28.73
2019-03-25T02:50:15.696Z,27.53
2019-03-25T02:52:44.252Z,26.40
2019-03-25T02:55:12.892Z,28.00
2019-03-25T02:57:41.108Z,27.73
2019-03-25T03:00:10.927Z,27.00
2019-03-25T03:02:39.540Z,27.70
2019-03-25T03:05:08.744Z,28.73
2019-03-25T03:07:37.361Z,27.80
2019-03-25T03:10:07.187Z,28.93
2019-03-25T03:12:36.090Z,30.80
2019-03-25T03:15:07.119Z,29.83
2019-03-25T03:17:35.653Z,29.07
2019-03-25T03:20:06.370Z,27.87
2019-03-25T03:22:34.915Z,29.03
2019-03-25T03:25:03.165Z,31.00
2019-03-25T03:27:31.389Z,31.33
2019-03-25T03:29:59.933Z,29.30
2019-03-25T03:32:28.516Z,31.00
2019-03-25T03:34:57.062Z,29.13
2019-03-25T03:37:25.647Z,30.87
2019-03-25T03:39:54.189Z,24.97
2019-03-25T03:42:22.771Z,26.37
2019-03-25T03:44:50.993Z,28.20
2019-03-25T03:47:19.852Z,26.60
2019-03-25T03:49:48.389Z,28.53
2019-03-25T03:52:17.542Z,26.60
2019-03-25T03:54:46.278Z,27.13
2019-03-25T03:57:14.985Z,22.90
2019-03-25T03:59:43.978Z,24.43
2019-03-25T04:02:12.296Z,20.73
2019-03-25T04:04:40.842Z,20.33
2019-03-25T04:07:09.422Z,15.53
2019-03-25T04:09:37.968Z,21.97
2019-03-25T04:12:06.623Z,18.90
2019-03-25T04:14:35.160Z,18.70
2019-03-25T04:17:03.737Z,19.00
2019-03-25T04:19:31.953Z,12.90
2019-03-25T04:22:00.532Z,14.47
2019-03-25T04:24:29.073Z,18.77
2019-03-25T04:26:57.660Z,14.30
2019-03-25T04:29:26.207Z,18.60
2019-03-25T04:31:54.454Z,17.43
2019-03-25T04:34:22.684Z,11.87
2019-03-25T04:36:51.258Z,15.20
2019-03-25T04:39:19.802Z,17.10
2019-03-25T04:41:48.373Z,16.17
2019-03-25T04:44:16.925Z,14.87
2019-03-25T04:46:45.572Z,14.07
2019-03-25T04:49:14.122Z,13.60
2019-03-25T04:51:44.776Z,14.83
2019-03-25T04:54:12.631Z,10.77
2019-03-25T04:56:40.883Z,12.57
2019-03-25T04:59:09.100Z,13.33
2019-03-25T05:01:37.353Z,13.70
2019-03-25T05:04:05.892Z,7.57
2019-03-25T05:06:34.149Z,15.13
2019-03-25T05:09:02.367Z,14.80
2019-03-25T05:11:31.092Z,12.00
2019-03-25T05:13:59.765Z,15.47
2019-03-25T05:16:28.345Z,15.60
2019-03-25T05:18:56.568Z,14.70
2019-03-25T05:21:24.821Z,9.33
2019-03-25T05:23:53.031Z,15.17
2019-03-25T05:26:21.605Z,12.50
2019-03-25T05:28:49.824Z,11.67
2019-03-25T05:31:18.072Z,13.97
2019-03-25T05:33:46.293Z,7.73
2019-03-25T05:36:14.536Z,9.53
2019-03-25T05:38:42.752Z,11.80
2019-03-25T05:41:11.000Z,12.03
2019-03-25T05:43:39.545Z,10.43
2019-03-25T05:46:07.816Z,13.53
2019-03-25T05:48:36.361Z,14.47
2019-03-25T05:51:04.680Z,10.30
2019-03-25T05:53:32.906Z,12.97
2019-03-25T05:56:01.480Z,10.23
2019-03-25T05:58:29.701Z,12.70
2019-03-25T06:00:58.256Z,13.37
2019-03-25T06:03:26.830Z,12.87
2019-03-25T06:05:55.376Z,14.23
2019-03-25T06:08:24.025Z,13.60
2019-03-25T06:10:52.239Z,14.33
2019-03-25T06:13:20.813Z,9.40
2019-03-25T06:15:49.036Z,11.17
2019-03-25T06:18:20.292Z,11.23
2019-03-25T06:20:47.475Z,11.23
2019-03-25T06:23:15.724Z,13.43
2019-03-25T06:25:43.940Z,12.27
2019-03-25T06:28:12.192Z,13.10
2019-03-25T06:30:40.408Z,10.93
2019-03-25T06:33:12.576Z,8.37
2019-03-25T06:35:38.853Z,8.63
2019-03-25T06:38:07.168Z,8.17
2019-03-25T06:40:35.377Z,6.87
2019-03-25T06:43:03.628Z,8.77
2019-03-25T06:45:31.845Z,9.53
2019-03-25T06:48:00.788Z,8.13
2019-03-25T06:50:29.007Z,8.60
2019-03-25T06:52:57.572Z,7.93
2019-03-25T06:55:25.860Z,7.60
2019-03-25T06:57:54.428Z,5.97
2019-03-25T07:00:22.716Z,5.23
2019-03-25T07:02:51.286Z,6.00
2019-03-25T07:05:19.571Z,5.83
2019-03-25T07:07:47.826Z,6.43
2019-03-25T07:10:19.457Z,7.22
2019-03-25T07:12:48.168Z,6.23
2019-03-25T07:15:17.925Z,6.73
2019-03-25T07:17:46.164Z,4.10
2019-03-25T07:20:14.448Z,4.17
2019-03-25T07:22:42.692Z,5.17
2019-03-25T07:25:11.072Z,5.27
2019-03-25T07:27:39.317Z,5.20
2019-03-25T07:30:08.000Z,5.40
2019-03-25T07:32:36.249Z,6.50
2019-03-25T07:35:06.132Z,6.53
2019-03-25T07:37:34.376Z,6.33
2019-03-25T07:40:03.060Z,5.50
2019-03-25T07:42:31.305Z,3.90
2019-03-25T07:44:59.520Z,5.33
2019-03-25T07:47:27.760Z,4.67
2019-03-25T07:49:55.985Z,5.67
2019-03-25T07:52:24.229Z,6.03
2019-03-25T07:54:52.458Z,5.23
2019-03-25T07:57:20.695Z,5.70
2019-03-25T07:59:49.236Z,6.37
2019-03-25T08:02:17.868Z,5.20
2019-03-25T08:04:46.483Z,4.87
2019-03-25T08:07:15.065Z,4.63
2019-03-25T08:09:43.272Z,4.67
2019-03-25T08:12:11.844Z,5.03
2019-03-25T08:14:40.044Z,2.70
2019-03-25T08:17:08.613Z,5.73
2019-03-25T08:19:37.157Z,4.17
2019-03-25T08:22:05.796Z,3.23
2019-03-25T08:24:34.403Z,3.43
2019-03-25T08:27:02.975Z,3.60
2019-03-25T08:29:31.581Z,3.70
2019-03-25T08:32:00.157Z,4.67
2019-03-25T08:34:28.696Z,4.33
2019-03-25T08:36:57.272Z,5.90
2019-03-25T08:39:25.818Z,4.27
2019-03-25T08:41:54.460Z,3.67
2019-03-25T08:44:22.996Z,3.20
2019-03-25T08:46:51.569Z,4.67
2019-03-25T08:49:20.109Z,3.87
2019-03-25T08:51:48.653Z,3.27
2019-03-25T08:54:16.901Z,3.53
2019-03-25T08:56:45.119Z,3.10
2019-03-25T08:59:13.685Z,5.30
2019-03-25T09:01:42.221Z,4.53
2019-03-25T09:04:10.788Z,5.30
2019-03-25T09:06:39.331Z,4.03
2019-03-25T09:09:08.905Z,5.10
2019-03-25T09:11:37.676Z,4.67
2019-03-25T09:14:05.989Z,4.00
2019-03-25T09:16:34.540Z,3.20
2019-03-25T09:19:03.121Z,4.10
2019-03-25T09:21:31.340Z,3.77
2019-03-25T09:23:59.921Z,4.60
2019-03-25T09:26:28.204Z,4.47
2019-03-25T09:28:56.513Z,5.50
2019-03-25T09:31:36.149Z,4.73
2019-03-25T09:33:55.436Z,5.17
2019-03-25T09:36:24.207Z,4.50
2019-03-25T09:38:52.452Z,3.00
2019-03-25T09:41:21.332Z,4.43
2019-03-25T09:43:50.140Z,3.47
2019-03-25T09:46:18.757Z,6.60
2019-03-25T09:48:47.461Z,3.83
2019-03-25T09:51:16.073Z,5.80
2019-03-25T09:53:44.708Z,4.53
2019-03-25T09:56:13.092Z,4.77
2019-03-25T09:58:41.674Z,4.80
2019-03-25T10:01:09.955Z,3.50
2019-03-25T10:03:38.592Z,3.70
2019-03-25T10:06:06.800Z,3.07
2019-03-25T10:08:35.516Z,3.80
2019-03-25T10:11:05.100Z,4.03
2019-03-25T10:13:33.415Z,3.53
2019-03-25T10:16:02.189Z,4.33
2019-03-25T10:18:30.501Z,3.90
2019-03-25T10:20:59.047Z,3.90
2019-03-25T10:23:27.285Z,3.00
2019-03-25T10:25:55.822Z,3.57
2019-03-25T10:28:24.136Z,5.20
2019-03-25T10:30:52.754Z,4.50
2019-03-25T10:33:21.064Z,3.90
2019-03-25T10:35:49.349Z,3.70
2019-03-25T10:38:19.895Z,4.60
2019-03-25T10:40:48.308Z,4.97
2019-03-25T10:43:16.552Z,4.30
2019-03-25T10:45:44.832Z,5.10
2019-03-25T10:48:13.151Z,4.40
2019-03-25T10:50:41.684Z,4.60
2019-03-25T10:53:10.257Z,4.10
2019-03-25T10:55:38.949Z,4.57
2019-03-25T10:58:07.336Z,4.57
2019-03-25T11:00:35.942Z,4.70
2019-03-25T11:03:04.780Z,3.80
2019-03-25T11:05:32.987Z,5.73
2019-03-25T11:08:01.236Z,6.13
2019-03-25T11:10:29.777Z,6.40
2019-03-25T11:12:58.026Z,3.53
2019-03-25T11:15:26.299Z,5.67
2019-03-25T11:17:54.873Z,6.30
2019-03-25T11:20:23.480Z,6.03
2019-03-25T11:22:52.052Z,7.13
2019-03-25T11:25:20.669Z,5.67
2019-03-25T11:27:54.413Z,5.90
2019-03-25T11:30:22.504Z,5.97
2019-03-25T11:32:51.081Z,5.87
2019-03-25T11:35:19.684Z,5.20
2019-03-25T11:37:48.256Z,5.17
2019-03-25T11:40:17.037Z,5.43
2019-03-25T11:42:45.612Z,8.80
2019-03-25T11:45:14.201Z,6.13
2019-03-25T11:47:42.785Z,7.10
2019-03-25T11:50:11.556Z,4.50
2019-03-25T11:52:40.102Z,4.57
2019-03-25T11:55:08.628Z,4.73
2019-03-25T11:57:37.153Z,4.63
2019-03-25T12:00:07.908Z,4.17
2019-03-25T12:02:36.188Z,3.50
2019-03-25T12:05:09.261Z,3.13
2019-03-25T12:07:37.484Z,2.73
2019-03-25T12:10:06.147Z,2.57
2019-03-25T12:12:34.316Z,3.10
2019-03-25T12:15:02.641Z,2.97
2019-03-25T12:17:30.855Z,2.73
2019-03-25T12:19:59.102Z,3.13
2019-03-25T12:22:27.313Z,2.63
2019-03-25T12:24:55.555Z,4.20
2019-03-25T12:27:23.811Z,3.53
2019-03-25T12:29:52.484Z,3.70
2019-03-25T12:32:21.039Z,4.33
2019-03-25T12:34:49.664Z,4.57
2019-03-25T12:37:18.279Z,4.50
2019-03-25T12:39:46.532Z,4.40
2019-03-25T12:42:14.749Z,4.33
2019-03-25T12:44:42.988Z,3.83
2019-03-25T12:47:11.197Z,4.30
2019-03-25T12:49:39.440Z,4.67
2019-03-25T12:52:08.044Z,3.73
2019-03-25T12:54:36.289Z,3.10
2019-03-25T12:57:04.567Z,3.63
2019-03-25T12:59:40.718Z,2.93
2019-03-25T13:02:02.678Z,3.50
2019-03-25T13:04:31.241Z,3.47
2019-03-25T13:06:59.782Z,3.40
2019-03-25T13:09:28.351Z,4.10
2019-03-25T13:11:56.578Z,3.10
2019-03-25T13:14:24.882Z,2.67
2019-03-25T13:16:53.416Z,4.00
2019-03-25T13:19:21.984Z,3.57
2019-03-25T13:21:50.525Z,5.43
2019-03-25T13:24:18.772Z,3.90
2019-03-25T13:26:46.988Z,3.93
2019-03-25T13:29:15.556Z,3.47
2019-03-25T13:31:43.770Z,4.60
2019-03-25T13:34:12.336Z,3.30
2019-03-25T13:36:40.872Z,3.63
2019-03-25T13:39:09.113Z,4.07
2019-03-25T13:41:37.324Z,3.60
2019-03-25T13:44:05.896Z,4.17
2019-03-25T13:46:34.443Z,3.83
2019-03-25T13:49:03.012Z,3.50
2019-03-25T13:51:31.557Z,3.93
2019-03-25T13:54:00.128Z,3.93
2019-03-25T13:56:28.732Z,3.10
2019-03-25T13:58:57.379Z,6.73
2019-03-25T14:01:25.921Z,5.60
2019-03-25T14:03:54.489Z,3.63
2019-03-25T14:06:23.031Z,2.90
2019-03-25T14:08:51.596Z,2.73
2019-03-25T14:11:20.141Z,4.00
2019-03-25T14:13:49.400Z,2.43
2019-03-25T14:16:17.896Z,2.67
2019-03-25T14:18:46.140Z,2.77
2019-03-25T14:21:14.678Z,3.07
2019-03-25T14:23:43.249Z,2.80
2019-03-25T14:26:11.789Z,2.80
2019-03-25T14:28:40.330Z,2.67
2019-03-25T14:31:08.977Z,2.57
2019-03-25T14:33:37.528Z,3.00
2019-03-25T14:36:06.159Z,2.70
2019-03-25T14:38:34.692Z,2.67
2019-03-25T14:41:03.844Z,4.33
2019-03-25T14:43:32.048Z,3.40
2019-03-25T14:46:00.618Z,2.50
2019-03-25T14:48:29.161Z,3.03
2019-03-25T14:50:57.805Z,2.70
2019-03-25T14:53:26.340Z,3.20
2019-03-25T14:55:54.584Z,2.20
2019-03-25T14:58:23.116Z,2.50
2019-03-25T15:00:51.684Z,2.87
2019-03-25T15:03:19.897Z,2.40
2019-03-25T15:05:48.136Z,2.10
2019-03-25T15:08:16.352Z,2.50
2019-03-25T15:10:53.267Z,2.50
2019-03-25T15:13:14.852Z,2.90
2019-03-25T15:15:43.097Z,2.93
2019-03-25T15:18:15.366Z,2.70
2019-03-25T15:20:41.269Z,2.97
2019-03-25T15:23:09.876Z,2.90
2019-03-25T15:25:38.133Z,3.10
2019-03-25T15:28:06.408Z,3.50
2019-03-25T15:30:36.332Z,3.03
2019-03-25T15:33:04.979Z,3.10
2019-03-25T15:35:33.220Z,2.73
2019-03-25T15:38:01.757Z,2.77
2019-03-25T15:40:30.086Z,2.50
2019-03-25T15:42:58.313Z,2.67
2019-03-25T15:45:26.548Z,2.90
2019-03-25T15:47:55.094Z,3.23
2019-03-25T15:50:23.733Z,3.13
2019-03-25T15:52:52.268Z,2.10
2019-03-25T15:55:20.504Z,3.33
2019-03-25T15:57:48.719Z,2.73
2019-03-25T16:00:18.804Z,2.27
2019-03-25T16:02:47.084Z,2.63
2019-03-25T16:05:15.662Z,2.60
2019-03-25T16:07:43.939Z,2.87
2019-03-25T16:10:14.445Z,2.73
2019-03-25T16:12:42.986Z,2.60
2019-03-25T16:15:12.196Z,2.53
2019-03-25T16:17:43.155Z,2.60
2019-03-25T16:20:12.260Z,2.40
2019-03-25T16:22:40.805Z,2.83
2019-03-25T16:25:10.591Z,3.23
2019-03-25T16:27:38.800Z,2.97
2019-03-25T16:30:07.708Z,5.13
2019-03-25T16:32:36.248Z,6.93
2019-03-25T16:35:05.380Z,4.50
2019-03-25T16:37:33.593Z,4.00
2019-03-25T16:40:01.832Z,3.47
2019-03-25T16:42:30.045Z,2.87
2019-03-25T16:44:58.290Z,3.70
2019-03-25T16:47:26.501Z,3.30
2019-03-25T16:49:54.744Z,3.40
2019-03-25T16:52:22.947Z,3.23
2019-03-25T16:54:51.264Z,3.60
2019-03-25T16:57:19.484Z,4.67
2019-03-25T16:59:47.727Z,4.70
2019-03-25T17:02:15.941Z,4.03
2019-03-25T17:04:44.183Z,4.20
2019-03-25T17:07:12.725Z,3.80
2019-03-25T17:09:40.968Z,3.03
2019-03-25T17:12:09.507Z,3.20
2019-03-25T17:14:37.747Z,3.30
2019-03-25T17:17:05.952Z,2.77
2019-03-25T17:19:34.196Z,3.00
2019-03-25T17:22:02.408Z,2.50
2019-03-25T17:24:30.648Z,2.90
2019-03-25T17:26:58.865Z,3.03
2019-03-25T17:29:27.080Z,3.90
2019-03-25T17:31:55.321Z,2.57
2019-03-25T17:34:23.532Z,3.40
2019-03-25T17:36:51.768Z,2.87
2019-03-25T17:39:20.049Z,3.67
2019-03-25T17:41:48.386Z,3.73
2019-03-25T17:44:16.585Z,6.40
2019-03-25T17:46:44.821Z,3.63
2019-03-25T17:49:13.040Z,8.27
2019-03-25T17:51:41.280Z,6.30
2019-03-25T17:54:09.498Z,9.60
2019-03-25T17:56:37.744Z,5.50
2019-03-25T17:59:06.024Z,4.97
2019-03-25T18:01:34.633Z,5.77
2019-03-25T18:04:02.848Z,4.00
2019-03-25T18:06:31.191Z,5.60
2019-03-25T18:08:59.377Z,5.13
2019-03-25T18:11:27.620Z,4.67
2019-03-25T18:13:55.834Z,5.80
2019-03-25T18:16:24.146Z,4.60
2019-03-25T18:18:56.911Z,4.10
2019-03-25T18:21:25.190Z,4.80
2019-03-25T18:23:56.737Z,4.80
2019-03-25T18:26:24.981Z,4.70
2019-03-25T18:28:53.200Z,7.83
2019-03-25T18:31:21.440Z,8.87
2019-03-25T18:33:49.664Z,8.97
2019-03-25T18:36:17.903Z,9.53
2019-03-25T18:38:46.116Z,7.77
2019-03-25T18:41:14.371Z,5.90
2019-03-25T18:43:42.592Z,10.50
2019-03-25T18:46:10.843Z,9.70
2019-03-25T18:48:39.123Z,8.70
2019-03-25T18:51:07.373Z,10.30
2019-03-25T18:53:35.587Z,9.90
2019-03-25T18:56:03.905Z,9.97
2019-03-25T18:58:32.197Z,9.37
2019-03-25T19:01:00.534Z,10.03
2019-03-25T19:03:28.733Z,10.03
2019-03-25T19:05:56.976Z,8.10
2019-03-25T19:08:25.355Z,7.10
2019-03-25T19:10:53.694Z,7.97
2019-03-25T19:13:21.961Z,8.83
2019-03-25T19:15:50.195Z,6.70
2019-03-25T19:18:18.417Z,6.43
2019-03-25T19:20:46.655Z,5.60
2019-03-25T19:23:14.870Z,5.27
2019-03-25T19:25:43.117Z,6.20
2019-03-25T19:28:11.332Z,6.00
2019-03-25T19:30:39.577Z,6.30
2019-03-25T19:33:07.793Z,7.23
2019-03-25T19:35:36.038Z,7.60
2019-03-25T19:38:04.333Z,11.03
2019-03-25T19:40:32.605Z,11.33
2019-03-25T19:43:00.815Z,18.10
2019-03-25T19:45:29.107Z,7.77
2019-03-25T19:47:57.328Z,5.63
2019-03-25T19:50:25.599Z,5.27
2019-03-25T19:52:53.790Z,4.53
2019-03-25T19:55:22.023Z,4.90
2019-03-25T19:57:50.255Z,6.00
2019-03-25T20:00:19.993Z,6.00
2019-03-25T20:02:48.284Z,4.63
2019-03-25T20:05:16.839Z,4.97
2019-03-25T20:07:45.094Z,4.60
2019-03-25T20:10:32.244Z,4.53
2019-03-25T20:13:00.594Z,4.33
2019-03-25T20:15:31.192Z,4.13
2019-03-25T20:17:58.685Z,4.20
2019-03-25T20:20:27.004Z,4.03
2019-03-25T20:22:55.217Z,4.90
2019-03-25T20:25:23.492Z,4.93
2019-03-25T20:27:51.744Z,3.70
2019-03-25T20:30:20.414Z,4.10
2019-03-25T20:32:48.654Z,4.50
2019-03-25T20:35:17.187Z,4.00
2019-03-25T20:37:45.442Z,4.13
2019-03-25T20:40:14.051Z,4.50
2019-03-25T20:42:42.348Z,4.10
2019-03-25T20:45:10.569Z,4.43
2019-03-25T20:47:38.805Z,4.80
2019-03-25T20:50:07.542Z,4.70
2019-03-25T20:52:36.065Z,4.30
2019-03-25T20:55:07.006Z,4.93
2019-03-25T20:57:35.611Z,4.60
2019-03-25T21:00:07.575Z,4.87
2019-03-25T21:02:45.013Z,5.40
2019-03-25T21:05:07.009Z,5.10
2019-03-25T21:07:35.324Z,5.00
2019-03-25T21:10:06.354Z,4.47
2019-03-25T21:12:34.907Z,4.80
2019-03-25T21:15:04.142Z,4.27
2019-03-25T21:17:32.412Z,4.07
2019-03-25T21:20:00.566Z,4.20
2019-03-25T21:22:28.838Z,4.20
2019-03-25T21:24:57.391Z,4.30
2019-03-25T21:27:25.888Z,5.07
2019-03-25T21:29:54.105Z,5.87
2019-03-25T21:32:22.345Z,5.23
2019-03-25T21:34:50.723Z,4.03
2019-03-25T21:37:19.451Z,4.57
2019-03-25T21:39:47.668Z,5.47
2019-03-25T21:42:15.892Z,4.90
2019-03-25T21:44:44.196Z,4.83
2019-03-25T21:47:12.354Z,4.93
2019-03-25T21:49:40.641Z,5.43
2019-03-25T21:52:08.893Z,4.73
2019-03-25T21:54:37.154Z,5.10
2019-03-25T21:57:05.360Z,5.10
2019-03-25T21:59:33.561Z,5.03
2019-03-25T22:02:01.818Z,5.60
2019-03-25T22:04:30.005Z,5.70
2019-03-25T22:06:58.252Z,6.37
2019-03-25T22:09:26.793Z,5.80
2019-03-25T22:11:55.036Z,7.30
2019-03-25T22:14:23.250Z,5.40
2019-03-25T22:16:54.149Z,5.57
2019-03-25T22:19:22.406Z,5.47
2019-03-25T22:21:50.604Z,6.17
2019-03-25T22:24:19.143Z,6.03
2019-03-25T22:26:47.385Z,6.67
2019-03-25T22:29:15.920Z,6.30
2019-03-25T22:31:44.488Z,6.03
2019-03-25T22:34:12.708Z,5.93
2019-03-25T22:36:41.276Z,4.77
2019-03-25T22:39:09.628Z,6.33
2019-03-25T22:41:38.092Z,7.03
2019-03-25T22:44:06.660Z,6.20
2019-03-25T22:46:34.869Z,5.73
2019-03-25T22:49:04.185Z,6.57
2019-03-25T22:51:32.798Z,7.17
2019-03-25T22:54:01.052Z,6.07
2019-03-25T22:56:29.590Z,6.13
2019-03-25T22:58:57.830Z,5.60
2019-03-25T23:01:26.139Z,6.03
2019-03-25T23:03:54.349Z,5.70
2019-03-25T23:06:22.561Z,5.07
2019-03-25T23:08:50.800Z,4.10
2019-03-25T23:11:19.081Z,4.93
2019-03-25T23:13:47.320Z,4.63
2019-03-25T23:16:15.528Z,4.90
2019-03-25T23:18:43.768Z,5.83
2019-03-25T23:21:11.976Z,5.83
2019-03-25T23:23:40.217Z,5.33
2019-03-25T23:26:08.432Z,5.57
2019-03-25T23:28:36.676Z,5.63
2019-03-25T23:31:04.881Z,5.50
2019-03-25T23:33:33.188Z,5.73
2019-03-25T23:36:01.407Z,5.30
2019-03-25T23:38:29.653Z,4.80
2019-03-25T23:40:57.860Z,5.87
2019-03-25T23:43:26.108Z,4.60
2019-03-25T23:45:54.324Z,5.73
2019-03-25T23:48:22.567Z,5.90
2019-03-25T23:50:50.780Z,6.33
2019-03-25T23:53:19.020Z,5.97
2019-03-25T23:55:47.228Z,5.20
2019-03-25T23:58:15.468Z,5.30
